Weather at Mercy Hospital & Medical Center Heliport

Public forecast

Using degrees Fahrenheit for public forecast. Weather courtesy of forecast.io.

Closest aviation weather report (METAR) to Mercy Hospital & Medical Center Heliport

Report is more than 6 hours old.

Closest report is San Diego International Airport, 1.8 nm (3.4 km) SW.

2022/11/14 14:51 (retrieved 2 years ago)

KSAN 141451Z VRB03KT 10SM SCT250 11/05 A3012 RMK AO2 SLP199 T01060050 53005

Closest aviation forecast (TAF) to Mercy Hospital & Medical Center Heliport

Forecast is more than 12 hours old.

Closest forecast is San Diego International Airport, 1.8 nm (3.4 km) SW.

2023/02/22 18:42 (retrieved 1 year ago)

TAF KSAN 221739Z 2218/2324 29020G35KT P6SM VCSH SCT030 BKN040 FM221900 28020G30KT P6SM SCT030 SCT040 FM230200 28014G24KT P6SM VCSH SCT030 SCT040 FM231100 27011G18KT P6SM -SHRA SCT030 BKN040